Time;durP1;ratioP1;P1;durP2;ratioP2;P2;SDS_P1;SDS_P2;PMS_P1;PMS_P2;Temp;Humidity;BMP_temperature;BMP_pressure;BME280_temperature;BME280_humidity;BME280_pressure;Samples;Min_cycle;Max_cycle;Signal;HPM_P1;HPM_P2
2021/12/06 00:02:04;;;;;;;14.35;6.18;;;;;;;-0.84;91.89;96646.50;5024106;28;20041;-59
2021/12/06 00:04:38;;;;;;;12.00;7.35;;;;;;;-0.76;91.57;96645.50;5024542;28;20727;-58
2021/12/06 00:07:11;;;;;;;11.73;8.20;;;;;;;-0.74;91.46;96642.66;5038581;28;20049;-59
2021/12/06 00:09:38;;;;;;;12.40;7.32;;;;;;;-0.80;90.92;96654.88;5038395;28;20049;-59
2021/12/06 00:12:06;;;;;;;10.60;6.72;;;;;;;-0.84;91.13;96657.13;5022711;28;20056;-59
2021/12/06 00:14:37;;;;;;;11.90;7.38;;;;;;;-0.77;91.30;96656.34;5025442;28;20046;-59
2021/12/06 00:17:07;;;;;;;12.30;7.22;;;;;;;-0.79;91.40;96656.53;5006145;28;20046;-59
2021/12/06 00:19:35;;;;;;;12.05;7.28;;;;;;;-0.78;91.67;96650.19;5008072;28;20041;-59
2021/12/06 00:22:05;;;;;;;16.83;8.43;;;;;;;-0.81;91.47;96654.06;5023505;28;20038;-59
2021/12/06 00:24:32;;;;;;;11.15;7.15;;;;;;;-1.00;91.29;96660.09;5025144;28;20793;-59
2021/12/06 00:26:59;;;;;;;13.13;7.85;;;;;;;-0.93;92.50;96661.78;5015007;28;20041;-59
2021/12/06 00:29:26;;;;;;;14.80;8.15;;;;;;;-0.87;92.54;96665.50;5021784;28;20038;-59
2021/12/06 00:31:52;;;;;;;14.73;9.23;;;;;;;-0.87;92.52;96667.31;5021575;28;20107;-58
2021/12/06 00:34:20;;;;;;;14.68;9.43;;;;;;;-0.81;92.38;96670.00;5025954;28;20436;-59
2021/12/06 00:37:04;;;;;;;20.20;10.77;;;;;;;-0.96;92.55;96670.13;5023638;28;20049;-59
2021/12/06 00:39:31;;;;;;;14.07;7.88;;;;;;;-0.92;92.36;96667.91;5020561;28;20060;-58
2021/12/06 00:42:03;;;;;;;14.20;8.18;;;;;;;-0.89;92.33;96666.72;5018969;28;20046;-58
2021/12/06 00:44:29;;;;;;;18.25;9.20;;;;;;;-0.87;92.66;96673.47;5015525;28;20056;-59
2021/12/06 00:46:56;;;;;;;17.83;10.23;;;;;;;-0.80;92.55;96674.31;5025194;28;20049;-59
2021/12/06 00:49:23;;;;;;;14.93;8.82;;;;;;;-0.73;92.43;96671.69;5016677;28;20042;-58
2021/12/06 00:51:49;;;;;;;16.30;9.52;;;;;;;-0.71;92.31;96682.94;5021989;28;20115;-58
2021/12/06 00:54:16;;;;;;;19.88;10.52;;;;;;;-0.36;92.15;96684.75;5025455;28;20041;-59
2021/12/06 00:56:43;;;;;;;13.45;9.02;;;;;;;-0.47;91.15;96682.66;5028742;28;20064;-59
2021/12/06 00:59:10;;;;;;;14.95;9.32;;;;;;;-0.64;90.83;96685.63;5029371;28;20687;-59
2021/12/06 01:01:36;;;;;;;14.65;8.15;;;;;;;-0.73;91.27;96690.31;5024016;28;20564;-59
2021/12/06 01:04:05;;;;;;;16.08;9.23;;;;;;;-0.83;91.68;96688.00;5021466;28;20053;-59
2021/12/06 01:06:32;;;;;;;13.30;7.93;;;;;;;-0.83;92.20;96684.50;5009226;28;20057;-59
2021/12/06 01:08:59;;;;;;;15.85;8.73;;;;;;;-0.74;92.30;96690.50;5017634;28;20049;-59
2021/12/06 01:11:25;;;;;;;16.83;9.05;;;;;;;-0.69;91.74;96698.72;5043445;28;20051;-59
2021/12/06 01:13:52;;;;;;;11.82;7.53;;;;;;;-0.64;91.74;96700.75;5029148;28;20055;-59
2021/12/06 01:16:19;;;;;;;13.80;8.48;;;;;;;-0.67;91.05;96704.63;5021694;28;20444;-59
2021/12/06 01:18:46;;;;;;;13.75;8.73;;;;;;;-0.69;91.48;96710.19;5027540;28;20578;-59
2021/12/06 01:21:22;;;;;;;18.45;8.63;;;;;;;-0.89;91.58;96709.22;5031863;28;20609;-59
2021/12/06 01:23:58;;;;;;;12.15;7.55;;;;;;;-1.00;91.49;96703.44;5027021;28;20037;-59
2021/12/06 01:26:59;;;;;;;14.93;7.97;;;;;;;-0.98;92.20;96724.50;5022098;28;20048;-59
2021/12/06 01:29:44;;;;;;;15.25;8.20;;;;;;;-0.87;92.93;96725.78;5040138;28;20073;-59
2021/12/06 01:32:23;;;;;;;12.38;8.18;;;;;;;-0.78;92.26;96737.91;5023978;28;20041;-59
2021/12/06 01:40:22;;;;;;;20.17;10.32;;;;;;;-0.93;92.25;96746.00;5029307;28;20052;-56
2021/12/06 01:42:49;;;;;;;17.23;9.23;;;;;;;-0.98;92.79;96745.75;5039857;28;20029;-56
2021/12/06 01:45:16;;;;;;;17.98;9.50;;;;;;;-0.88;92.98;96746.25;5028849;28;20050;-59
2021/12/06 01:47:43;;;;;;;15.30;9.85;;;;;;;-0.79;92.55;96741.59;5041800;28;20060;-58
2021/12/06 01:50:28;;;;;;;21.40;10.60;;;;;;;-0.90;92.30;96747.44;5023965;28;20559;-59
2021/12/06 01:52:58;;;;;;;18.75;10.35;;;;;;;-0.84;92.47;96747.50;5018171;28;20272;-59
2021/12/06 01:55:31;;;;;;;15.50;9.50;;;;;;;-0.77;92.54;96741.41;5043051;28;20084;-59
2021/12/06 01:57:59;;;;;;;16.45;9.63;;;;;;;-0.68;92.78;96749.03;5026404;28;20049;-59
2021/12/06 02:00:41;;;;;;;16.08;9.68;;;;;;;-0.63;92.41;96742.31;5021481;28;20544;-59
2021/12/06 02:03:16;;;;;;;17.25;10.45;;;;;;;-0.79;92.01;96742.44;5036369;28;20296;-59
2021/12/06 02:05:48;;;;;;;14.10;9.63;;;;;;;-0.73;92.42;96750.63;5040561;28;20064;-59
2021/12/06 02:08:18;;;;;;;19.02;9.90;;;;;;;-0.85;92.38;96756.47;5037384;28;20132;-59
2021/12/06 02:10:45;;;;;;;18.70;10.82;;;;;;;-0.80;92.31;96764.69;5028239;28;20038;-58
2021/12/06 02:13:17;;;;;;;17.98;10.38;;;;;;;-0.79;92.47;96769.00;5027427;28;20208;-59
2021/12/06 02:15:51;;;;;;;16.55;10.13;;;;;;;-0.78;92.69;96767.16;5020357;28;20058;-59
2021/12/06 02:18:49;;;;;;;21.80;11.77;;;;;;;-0.86;92.57;96770.78;5022447;28;20064;-59
2021/12/06 02:21:31;;;;;;;22.27;14.57;;;;;;;-0.91;93.06;96765.25;5017963;28;20046;-59
2021/12/06 02:24:02;;;;;;;23.17;14.10;;;;;;;-0.87;93.01;96768.31;5036538;28;20535;-59
2021/12/06 02:26:29;;;;;;;22.45;11.88;;;;;;;-0.66;93.84;96764.78;5061369;28;20079;-58
2021/12/06 02:28:57;;;;;;;25.15;13.15;;;;;;;-0.70;92.84;96768.84;5038780;28;20060;-59
2021/12/06 02:31:25;;;;;;;24.98;13.35;;;;;;;-0.48;93.06;96780.22;5018920;28;20041;-58
2021/12/06 02:33:53;;;;;;;29.05;15.18;;;;;;;-0.16;93.50;96783.25;5038393;28;20056;-59
2021/12/06 02:36:23;;;;;;;26.70;13.98;;;;;;;-0.45;90.91;96785.16;5021073;28;20142;-59
2021/12/06 02:38:49;;;;;;;17.42;11.30;;;;;;;-0.57;91.45;96787.56;5019118;28;20034;-59
2021/12/06 02:41:18;;;;;;;18.98;11.43;;;;;;;-0.56;91.69;96781.22;5027202;28;20065;-58
2021/12/06 02:43:46;;;;;;;18.35;11.60;;;;;;;-0.35;92.23;96782.16;5035568;28;20070;-58
2021/12/06 02:46:15;;;;;;;19.80;11.73;;;;;;;-0.22;92.02;96786.69;5033436;28;20459;-58
2021/12/06 02:48:42;;;;;;;20.25;10.93;;;;;;;-0.29;91.45;96783.22;5040845;28;20716;-58
2021/12/06 02:51:11;;;;;;;19.63;10.55;;;;;;;-0.34;91.35;96786.44;5013648;28;20429;-58
2021/12/06 02:53:39;;;;;;;21.88;11.90;;;;;;;-0.43;91.56;96785.81;5011198;28;20075;-57
2021/12/06 02:56:28;;;;;;;18.80;11.27;;;;;;;-0.40;92.05;96788.03;5024577;28;20535;-57
2021/12/06 02:58:58;;;;;;;18.13;11.52;;;;;;;-0.46;92.05;96785.34;5023504;28;20048;-58
2021/12/06 03:01:47;;;;;;;19.15;11.15;;;;;;;-0.58;91.94;96790.41;5041499;28;20052;-57
2021/12/06 03:04:14;;;;;;;20.27;12.27;;;;;;;-0.56;91.95;96788.34;5015088;28;20038;-57
2021/12/06 03:06:42;;;;;;;20.33;10.77;;;;;;;-0.55;91.92;96790.81;5012951;28;20038;-58
2021/12/06 03:09:12;;;;;;;19.55;11.38;;;;;;;-0.45;92.63;96798.47;5008055;28;20040;-58
2021/12/06 03:11:41;;;;;;;18.83;10.98;;;;;;;-0.37;92.88;96797.47;5007195;28;20700;-58
2021/12/06 03:14:11;;;;;;;19.83;11.05;;;;;;;-0.24;93.43;96803.88;5019547;28;20100;-59
2021/12/06 03:16:39;;;;;;;17.90;10.25;;;;;;;-0.26;92.00;96798.75;5024513;28;20050;-58
2021/12/06 03:19:07;;;;;;;20.65;11.90;;;;;;;-0.28;91.92;96806.97;5031137;28;20103;-59
2021/12/06 03:21:34;;;;;;;18.88;11.43;;;;;;;-0.46;91.23;96810.13;5037659;28;20053;-59
2021/12/06 03:24:01;;;;;;;16.83;10.93;;;;;;;-0.44;91.48;96813.41;5034168;28;20041;-59
2021/12/06 03:26:29;;;;;;;14.80;9.90;;;;;;;-0.35;91.56;96816.72;5030722;28;20484;-58
2021/12/06 03:28:56;;;;;;;15.00;9.43;;;;;;;-0.49;91.17;96821.16;5031161;28;20424;-59
2021/12/06 03:31:25;;;;;;;20.52;11.82;;;;;;;-0.71;92.00;96829.19;5013490;28;20045;-59
2021/12/06 03:33:54;;;;;;;21.65;12.45;;;;;;;-0.83;92.56;96830.72;5016714;28;20042;-59
2021/12/06 03:36:24;;;;;;;24.80;12.95;;;;;;;-0.78;93.07;96830.97;5046420;28;20057;-58
2021/12/06 03:38:52;;;;;;;19.52;10.50;;;;;;;-0.70;93.35;96835.34;5032975;28;20046;-59
2021/12/06 03:41:21;;;;;;;20.63;11.20;;;;;;;-0.72;92.87;96832.03;5034526;28;20049;-59
2021/12/06 03:43:49;;;;;;;23.10;11.50;;;;;;;-0.68;92.75;96842.09;5016723;28;20039;-59
2021/12/06 03:46:19;;;;;;;20.90;10.77;;;;;;;-0.49;92.98;96834.44;5026026;28;20040;-59
2021/12/06 03:48:46;;;;;;;21.30;10.93;;;;;;;-0.47;92.80;96835.09;5020079;28;20045;-58
2021/12/06 03:51:14;;;;;;;19.75;10.23;;;;;;;-0.41;92.36;96844.94;5022900;28;20069;-59
2021/12/06 03:53:43;;;;;;;21.15;10.80;;;;;;;-0.47;92.03;96852.88;5021743;28;20080;-59
2021/12/06 03:56:09;;;;;;;20.50;10.80;;;;;;;-0.34;92.48;96846.84;5006721;28;20417;-59
2021/12/06 03:58:36;;;;;;;22.25;12.00;;;;;;;-0.28;91.74;96849.53;5018275;28;20045;-59
2021/12/06 04:01:04;;;;;;;19.25;10.27;;;;;;;-0.30;91.74;96851.53;5040670;28;20436;-59
2021/12/06 04:03:35;;;;;;;18.42;10.10;;;;;;;-0.30;91.76;96856.03;5038940;28;20777;-58
2021/12/06 04:06:05;;;;;;;17.15;9.45;;;;;;;-0.20;92.12;96850.38;5027152;28;20057;-59
2021/12/06 04:08:33;;;;;;;14.88;9.48;;;;;;;-0.17;91.87;96857.97;5039024;28;20085;-57
2021/12/06 04:11:00;;;;;;;16.63;8.57;;;;;;;-0.22;91.46;96861.22;5013627;28;20060;-57
2021/12/06 04:13:30;;;;;;;16.48;8.88;;;;;;;-0.19;91.11;96860.81;5030635;28;20053;-58
2021/12/06 04:15:58;;;;;;;16.00;9.07;;;;;;;-0.22;91.47;96865.72;5018299;28;20126;-59
2021/12/06 04:18:25;;;;;;;16.05;8.23;;;;;;;-0.23;91.52;96872.88;5019798;28;20448;-59
2021/12/06 04:20:53;;;;;;;15.60;9.77;;;;;;;-0.01;92.93;96881.59;5006982;28;20648;-59
2021/12/06 04:23:20;;;;;;;13.25;8.10;;;;;;;-0.16;91.13;96880.91;5021070;28;20049;-57
2021/12/06 04:25:48;;;;;;;13.75;8.25;;;;;;;-0.18;91.25;96874.97;5020209;28;20108;-58
2021/12/06 04:28:19;;;;;;;15.32;9.57;;;;;;;-0.11;91.34;96877.66;5045527;28;20044;-57
2021/12/06 04:30:47;;;;;;;15.30;8.68;;;;;;;-0.01;90.93;96886.09;5041236;28;20077;-58
2021/12/06 04:33:15;;;;;;;14.57;8.60;;;;;;;0.09;90.45;96880.44;5029170;28;20042;-59
2021/12/06 04:35:47;;;;;;;18.17;9.82;;;;;;;0.14;90.37;96898.47;5027478;28;20523;-59
2021/12/06 04:38:15;;;;;;;15.40;10.15;;;;;;;-0.15;90.55;96896.66;5033961;28;20045;-58
2021/12/06 04:40:42;;;;;;;15.20;7.85;;;;;;;-0.16;91.38;96900.34;5041479;28;20045;-59
2021/12/06 04:43:10;;;;;;;17.75;9.05;;;;;;;-0.22;91.59;96902.97;5044928;28;20528;-59
2021/12/06 04:45:37;;;;;;;17.45;9.10;;;;;;;-0.20;91.71;96906.25;5026030;28;20587;-59
2021/12/06 04:48:07;;;;;;;16.95;9.80;;;;;;;-0.16;92.03;96905.69;5010034;28;20037;-59
2021/12/06 04:50:36;;;;;;;17.88;9.40;;;;;;;-0.07;92.75;96909.00;5042638;28;20049;-59
2021/12/06 04:53:12;;;;;;;18.60;9.57;;;;;;;0.05;92.10;96914.63;5016377;28;20045;-59
2021/12/06 04:55:48;;;;;;;20.35;10.07;;;;;;;0.01;90.95;96916.03;5010583;28;20041;-59
2021/12/06 04:58:24;;;;;;;15.27;8.60;;;;;;;0.07;91.22;96914.44;5008643;28;20499;-59
2021/12/06 05:01:05;;;;;;;16.92;9.20;;;;;;;-0.01;90.86;96912.72;5036038;28;20896;-59
2021/12/06 05:03:33;;;;;;;;;;;;;;;0.00;90.92;96922.38;5022540;28;20037;-59
2021/12/06 05:06:09;;;;;;;16.58;8.55;;;;;;;0.01;91.50;96933.81;5043858;28;19921;-57
2021/12/06 05:08:40;;;;;;;14.57;8.63;;;;;;;0.31;91.83;96934.41;5012567;28;20046;-59
2021/12/06 05:11:08;;;;;;;15.60;8.82;;;;;;;0.21;91.14;96942.75;5030172;28;20041;-59
2021/12/06 05:13:37;;;;;;;20.13;9.98;;;;;;;0.34;91.51;96952.66;5027594;28;20508;-58
2021/12/06 05:16:05;;;;;;;16.10;9.00;;;;;;;0.32;91.38;96949.38;5027670;28;20069;-58
2021/12/06 05:18:32;;;;;;;16.42;9.45;;;;;;;0.23;90.16;96959.34;5026917;28;20044;-59
2021/12/06 05:20:59;;;;;;;18.48;8.73;;;;;;;0.08;90.62;96962.13;5017809;28;20068;-58
2021/12/06 05:23:26;;;;;;;16.60;9.55;;;;;;;0.00;91.07;96956.97;5032511;28;20033;-58
2021/12/06 05:25:53;;;;;;;17.67;9.60;;;;;;;-0.08;91.89;96959.78;5038231;28;20421;-58
2021/12/06 05:28:27;;;;;;;16.40;9.73;;;;;;;-0.02;91.46;96961.66;5036483;28;20049;-59
2021/12/06 05:30:56;;;;;;;20.52;10.05;;;;;;;-0.01;91.95;96964.13;5010347;28;20061;-59
2021/12/06 05:33:31;;;;;;;19.65;9.77;;;;;;;0.20;92.41;96974.91;5037296;28;20041;-57
2021/12/06 05:36:03;;;;;;;21.02;11.05;;;;;;;0.33;91.65;96977.63;5036233;28;20053;-57
2021/12/06 05:38:30;;;;;;;18.58;10.05;;;;;;;0.29;90.98;96987.03;5017091;28;20034;-58
2021/12/06 05:40:57;;;;;;;18.42;10.65;;;;;;;0.23;91.00;96993.16;5022549;28;20060;-58
2021/12/06 05:43:24;;;;;;;17.20;10.75;;;;;;;0.14;90.79;96994.34;5026899;28;20033;-57
2021/12/06 05:45:51;;;;;;;19.08;11.55;;;;;;;0.06;91.00;96998.78;5027063;28;20049;-57
2021/12/06 05:48:19;;;;;;;17.20;10.27;;;;;;;0.00;91.17;96999.56;5023344;28;20517;-58
2021/12/06 05:50:49;;;;;;;23.38;11.55;;;;;;;0.04;92.17;96994.66;5019508;28;20041;-59
2021/12/06 05:53:16;;;;;;;22.40;10.48;;;;;;;0.10;91.71;96997.38;5038851;28;20041;-59
2021/12/06 05:55:43;;;;;;;20.40;11.48;;;;;;;0.38;91.84;96999.19;5019527;28;20095;-59
2021/12/06 05:58:12;;;;;;;22.50;11.48;;;;;;;0.40;91.68;97006.97;5026392;28;20048;-58
2021/12/06 06:00:38;;;;;;;21.58;11.23;;;;;;;0.47;91.18;97021.16;5025011;28;20445;-59
2021/12/06 06:03:06;;;;;;;21.52;11.55;;;;;;;0.45;90.47;97017.91;5019072;28;20030;-59
2021/12/06 06:05:35;;;;;;;21.83;10.70;;;;;;;0.43;90.28;97021.75;5031006;28;20045;-59
2021/12/06 06:08:03;;;;;;;22.73;11.60;;;;;;;0.53;90.86;97022.22;5020741;28;20042;-59
2021/12/06 06:10:31;;;;;;;23.92;11.82;;;;;;;0.49;91.20;97028.97;5018757;28;20048;-59
2021/12/06 06:13:00;;;;;;;26.60;13.20;;;;;;;0.50;90.51;97030.59;5024967;28;20054;-59
2021/12/06 06:15:29;;;;;;;23.92;13.10;;;;;;;0.55;90.79;97043.34;5013608;28;20072;-58
2021/12/06 06:17:58;;;;;;;27.27;13.98;;;;;;;0.52;90.20;97049.91;5020932;28;20049;-58
2021/12/06 06:20:34;;;;;;;26.55;12.07;;;;;;;0.59;90.93;97044.59;5026873;28;20042;-59
2021/12/06 06:23:01;;;;;;;27.23;13.73;;;;;;;0.58;90.65;97050.94;5018786;28;20056;-60
2021/12/06 06:25:29;;;;;;;31.73;14.07;;;;;;;0.59;90.86;97053.41;5019186;28;20045;-59
2021/12/06 06:27:56;;;;;;;31.40;14.07;;;;;;;0.69;90.21;97058.38;5019573;28;20728;-59
2021/12/06 06:30:23;;;;;;;25.23;13.75;;;;;;;0.72;90.13;97059.84;5022642;28;20119;-59
2021/12/06 06:32:51;;;;;;;31.20;14.30;;;;;;;0.69;89.84;97061.06;5030809;28;20040;-60
2021/12/06 06:35:19;;;;;;;25.42;13.07;;;;;;;0.60;91.22;97063.06;5029636;28;20053;-59
2021/12/06 06:37:46;;;;;;;26.80;13.82;;;;;;;0.51;90.53;97073.03;5029745;28;20075;-57
2021/12/06 06:40:13;;;;;;;29.23;15.05;;;;;;;0.52;91.89;97080.00;5036309;28;20048;-60
2021/12/06 06:42:41;;;;;;;30.35;13.00;;;;;;;0.49;90.71;97091.06;5025473;28;20049;-59
2021/12/06 06:45:10;;;;;;;29.13;14.00;;;;;;;0.54;90.65;97089.63;5021896;28;20037;-58
2021/12/06 06:47:37;;;;;;;33.78;13.95;;;;;;;0.43;90.63;97099.81;5030621;28;20041;-59
2021/12/06 06:50:04;;;;;;;28.05;14.10;;;;;;;0.45;91.47;97094.31;5019657;28;20034;-58
2021/12/06 06:52:31;;;;;;;26.73;13.13;;;;;;;0.52;91.18;97103.19;5029198;28;20037;-58
2021/12/06 06:54:59;;;;;;;35.88;14.82;;;;;;;0.44;92.27;97101.47;5032421;28;20638;-57
2021/12/06 06:57:26;;;;;;;36.40;15.00;;;;;;;0.43;91.65;97099.00;5034672;28;20037;-58
2021/12/06 06:59:53;;;;;;;34.13;14.18;;;;;;;0.47;91.07;97110.91;5034320;28;20049;-55
2021/12/06 07:02:20;;;;;;;36.22;16.17;;;;;;;0.44;91.36;97109.47;5032363;28;20037;-59
2021/12/06 07:04:47;;;;;;;29.88;14.27;;;;;;;0.52;91.21;97109.31;5023113;28;20034;-59
2021/12/06 07:07:14;;;;;;;26.75;13.68;;;;;;;0.47;91.59;97109.09;5027578;28;20056;-58
2021/12/06 07:09:43;;;;;;;30.15;12.85;;;;;;;0.54;91.75;97121.59;5028023;28;20401;-59
2021/12/06 07:12:15;;;;;;;51.38;24.08;;;;;;;0.57;90.91;97118.56;5029585;28;20053;-58
2021/12/06 07:14:44;;;;;;;47.80;18.10;;;;;;;0.61;91.11;97118.00;5027485;28;20072;-59
2021/12/06 07:17:12;;;;;;;58.28;27.60;;;;;;;0.55;90.54;97129.41;5023675;28;20037;-59
2021/12/06 07:19:38;;;;;;;44.33;21.20;;;;;;;0.52;90.82;97129.81;5030169;28;20049;-59
2021/12/06 07:22:05;;;;;;;26.45;12.88;;;;;;;0.56;90.53;97127.59;5042817;28;20048;-59
2021/12/06 07:24:32;;;;;;;44.72;24.90;;;;;;;0.35;91.23;97130.09;5033585;28;20037;-57
2021/12/06 07:26:59;;;;;;;42.38;23.35;;;;;;;0.38;92.59;97131.56;5042425;28;20124;-59
2021/12/06 07:29:26;;;;;;;38.92;19.60;;;;;;;0.54;92.80;97140.25;5043379;28;20053;-58
2021/12/06 07:31:53;;;;;;;31.55;14.65;;;;;;;0.58;91.39;97141.53;5038393;28;20053;-59
2021/12/06 07:34:19;;;;;;;31.45;15.18;;;;;;;0.60;91.54;97143.00;5030553;28;20048;-59
2021/12/06 07:36:47;;;;;;;29.67;12.52;;;;;;;0.70;91.44;97145.31;5026787;28;20052;-59
2021/12/06 07:39:13;;;;;;;26.40;11.55;;;;;;;0.73;90.58;97155.59;5030672;28;20095;-59
2021/12/06 07:41:40;;;;;;;29.35;14.43;;;;;;;0.55;91.07;97155.25;5041080;28;20047;-54
2021/12/06 07:44:06;;;;;;;26.98;12.82;;;;;;;0.52;91.25;97154.59;5036694;28;20032;-57
2021/12/06 07:46:33;;;;;;;24.23;11.07;;;;;;;0.51;91.81;97160.97;5044291;28;20052;-58
2021/12/06 07:49:00;;;;;;;28.75;12.15;;;;;;;0.68;91.98;97163.34;5043884;28;20045;-53
2021/12/06 07:51:28;;;;;;;27.77;11.60;;;;;;;0.70;91.13;97163.16;5040504;28;20048;-56
2021/12/06 07:53:57;;;;;;;25.55;11.98;;;;;;;0.88;91.08;97165.31;5044429;28;20040;-54
2021/12/06 07:56:25;;;;;;;26.10;11.45;;;;;;;0.94;90.78;97169.03;5043212;28;20045;-56
2021/12/06 07:58:51;;;;;;;21.60;10.55;;;;;;;0.97;91.19;97169.50;5043724;28;20045;-59
2021/12/06 08:01:18;;;;;;;23.23;10.68;;;;;;;0.91;90.15;97164.94;5041924;28;20041;-57
2021/12/06 08:03:45;;;;;;;25.10;12.50;;;;;;;0.92;90.67;97163.91;5023672;28;20060;-55
2021/12/06 08:06:12;;;;;;;19.65;8.95;;;;;;;0.90;89.58;97172.13;5026317;28;20095;-59
2021/12/06 08:08:40;;;;;;;23.45;10.90;;;;;;;1.02;89.53;97163.56;5025600;28;20112;-59
2021/12/06 08:11:13;;;;;;;20.48;10.18;;;;;;;1.06;90.11;97174.69;5025719;28;20563;-57
2021/12/06 08:13:44;;;;;;;19.98;10.45;;;;;;;1.06;89.91;97182.69;5025963;28;20042;-57
2021/12/06 08:16:14;;;;;;;23.42;11.13;;;;;;;1.04;89.37;97177.53;5025756;28;20045;-58
2021/12/06 08:18:41;;;;;;;22.23;10.18;;;;;;;1.18;90.75;97189.09;5038219;28;20495;-58
2021/12/06 08:21:08;;;;;;;22.08;9.80;;;;;;;1.24;89.39;97190.16;5034450;28;20103;-59
2021/12/06 08:23:35;;;;;;;19.15;10.00;;;;;;;1.15;89.30;97184.16;5023751;28;20041;-58
2021/12/06 08:26:04;;;;;;;18.83;8.75;;;;;;;1.05;89.49;97189.84;5023624;28;20049;-58
2021/12/06 08:28:32;;;;;;;18.67;9.20;;;;;;;1.30;88.94;97198.19;5043109;28;20091;-58
2021/12/06 08:30:58;;;;;;;14.60;8.45;;;;;;;1.34;88.16;97190.63;5043597;28;20520;-58
2021/12/06 08:33:26;;;;;;;12.98;7.57;;;;;;;1.36;88.15;97203.78;5035618;28;20084;-57
2021/12/06 08:35:55;;;;;;;12.43;7.22;;;;;;;1.31;87.96;97196.34;5023216;28;20164;-58
2021/12/06 08:38:25;;;;;;;8.63;5.22;;;;;;;1.32;87.62;97195.31;5024773;28;20064;-57
2021/12/06 08:40:54;;;;;;;9.25;4.95;;;;;;;1.16;87.83;97196.47;5043672;28;20045;-58
2021/12/06 08:43:21;;;;;;;13.43;6.25;;;;;;;0.87;88.59;97207.16;5035345;28;20484;-58
2021/12/06 08:45:56;;;;;;;9.68;5.43;;;;;;;1.06;87.98;97204.00;5043193;28;20037;-58
2021/12/06 08:48:26;;;;;;;11.20;6.20;;;;;;;1.20;88.20;97207.56;5043285;28;20049;-58
2021/12/06 08:50:55;;;;;;;8.10;4.93;;;;;;;1.04;87.67;97205.00;5031339;28;20053;-57
2021/12/06 08:53:22;;;;;;;9.93;5.53;;;;;;;1.04;87.22;97206.88;5041378;28;20094;-57
2021/12/06 08:55:50;;;;;;;10.73;6.03;;;;;;;1.05;87.44;97205.84;5043608;28;20037;-55
2021/12/06 08:58:17;;;;;;;12.13;6.78;;;;;;;0.99;88.75;97215.44;5043522;28;20037;-57
2021/12/06 09:00:44;;;;;;;12.18;7.63;;;;;;;0.89;87.96;97218.44;5043741;28;20102;-57
2021/12/06 09:03:11;;;;;;;14.93;8.07;;;;;;;0.85;88.36;97227.03;5031906;28;20524;-55
2021/12/06 09:05:43;;;;;;;14.07;7.97;;;;;;;0.86;88.79;97216.19;5043608;28;20107;-58
2021/12/06 09:08:10;;;;;;;13.18;6.97;;;;;;;1.09;87.22;97215.09;5043695;28;20512;-57
2021/12/06 09:10:42;;;;;;;13.30;8.10;;;;;;;1.07;87.51;97222.47;5043367;28;20072;-58
2021/12/06 09:13:09;;;;;;;14.63;6.88;;;;;;;1.12;87.36;97220.06;5042441;28;20045;-58
2021/12/06 09:15:35;;;;;;;13.30;7.65;;;;;;;1.20;86.96;97215.56;5044965;28;20047;-58
2021/12/06 09:18:03;;;;;;;8.32;5.03;;;;;;;1.27;86.75;97224.44;5033798;28;20037;-58
2021/12/06 09:20:35;;;;;;;9.43;5.60;;;;;;;1.23;87.26;97221.34;5046988;28;20083;-59
2021/12/06 09:23:03;;;;;;;15.65;8.23;;;;;;;1.31;86.84;97220.38;5042871;28;20048;-58
2021/12/06 09:25:29;;;;;;;9.93;5.30;;;;;;;1.42;86.76;97222.50;5046834;28;20045;-58
2021/12/06 09:27:57;;;;;;;8.98;4.68;;;;;;;1.39;87.50;97222.03;5046040;28;20056;-58
2021/12/06 09:30:27;;;;;;;6.60;3.88;;;;;;;1.38;86.38;97226.56;5045421;28;20048;-57
2021/12/06 09:32:56;;;;;;;6.75;3.67;;;;;;;1.37;85.73;97232.09;5036793;28;20073;-58
2021/12/06 09:35:26;;;;;;;6.80;3.15;;;;;;;1.45;86.70;97229.28;5046663;28;20156;-57
2021/12/06 09:37:56;;;;;;;5.68;3.10;;;;;;;1.38;85.98;97236.41;5046354;28;20072;-57
2021/12/06 09:40:25;;;;;;;8.07;4.18;;;;;;;1.44;86.04;97235.63;5046171;28;20056;-58
2021/12/06 09:42:53;;;;;;;11.15;5.15;;;;;;;1.58;86.66;97233.03;5014570;28;20045;-58
2021/12/06 09:45:24;;;;;;;29.02;14.57;;;;;;;1.56;85.66;97234.03;5039339;28;20684;-58
2021/12/06 09:47:53;;;;;;;9.05;5.07;;;;;;;1.58;86.66;97233.84;5046310;28;20071;-57
2021/12/06 09:50:24;;;;;;;9.23;4.80;;;;;;;1.54;86.65;97235.25;5035275;28;20107;-56
2021/12/06 09:52:57;;;;;;;;;;;;;;;1.60;86.18;97241.66;5035653;28;20128;-58
2021/12/06 09:55:25;;;;;;;5.32;3.15;;;;;;;1.71;85.29;97237.59;5046572;28;19935;-56
2021/12/06 09:57:52;;;;;;;9.25;4.90;;;;;;;1.71;85.27;97238.44;5045247;28;20053;-57
2021/12/06 10:00:22;;;;;;;9.25;4.80;;;;;;;1.89;84.95;97235.25;5047161;28;20045;-57
2021/12/06 10:02:49;;;;;;;7.25;3.45;;;;;;;1.94;84.89;97234.63;5043199;28;20052;-59
2021/12/06 10:05:16;;;;;;;7.43;4.15;;;;;;;1.99;84.19;97231.38;5045299;28;20041;-58
2021/12/06 10:07:42;;;;;;;8.68;5.22;;;;;;;1.94;84.54;97232.78;5045964;28;20048;-58
2021/12/06 10:10:12;;;;;;;6.80;3.53;;;;;;;2.02;84.99;97225.59;5045925;28;20767;-59
2021/12/06 10:12:41;;;;;;;7.55;3.08;;;;;;;1.98;83.48;97227.06;5042207;28;20049;-59
2021/12/06 10:15:09;;;;;;;6.97;2.95;;;;;;;2.12;83.44;97219.88;5044466;28;20041;-58
2021/12/06 10:17:36;;;;;;;5.72;3.00;;;;;;;2.35;82.68;97219.53;5028103;28;20052;-58
2021/12/06 10:20:03;;;;;;;8.80;3.47;;;;;;;2.46;82.64;97215.44;5035379;28;20141;-59
2021/12/06 10:22:30;;;;;;;6.00;3.50;;;;;;;2.46;82.91;97216.25;5045209;28;20068;-59
2021/12/06 10:24:59;;;;;;;5.50;2.60;;;;;;;2.39;82.58;97212.75;5045862;28;20052;-59
2021/12/06 10:27:54;;;;;;;6.45;2.72;;;;;;;2.41;81.63;97201.84;5037573;28;20037;-58
2021/12/06 10:30:23;;;;;;;11.52;3.40;;;;;;;2.30;81.78;97205.97;5022452;28;20041;-59
2021/12/06 10:33:00;;;;;;;7.80;3.38;;;;;;;2.28;82.52;97202.69;5031064;28;20320;-59
2021/12/06 10:35:27;;;;;;;7.60;4.05;;;;;;;2.05;83.49;97196.66;5044932;28;20047;-58
2021/12/06 10:37:57;;;;;;;7.10;4.22;;;;;;;1.82;83.45;97197.00;5038393;28;20048;-57
2021/12/06 10:40:31;;;;;;;6.85;4.07;;;;;;;1.67;85.47;97195.28;5045251;28;20045;-57
2021/12/06 10:43:01;;;;;;;6.70;4.47;;;;;;;1.75;85.22;97196.16;5041584;28;20041;-58
2021/12/06 10:45:32;;;;;;;8.40;4.85;;;;;;;1.73;85.37;97188.34;5045192;28;20670;-58
2021/12/06 10:48:07;;;;;;;9.23;5.63;;;;;;;1.78;84.95;97188.56;5043725;28;20126;-58
2021/12/06 10:50:34;;;;;;;6.43;3.70;;;;;;;1.86;84.82;97198.25;5034275;28;20053;-59
2021/12/06 10:53:03;;;;;;;6.55;3.67;;;;;;;1.91;84.30;97193.13;5038643;28;20045;-59
2021/12/06 10:55:35;;;;;;;7.45;4.32;;;;;;;1.89;83.68;97200.53;5045305;28;20075;-59
2021/12/06 10:58:06;;;;;;;11.63;8.50;;;;;;;1.65;84.94;97197.34;5044672;28;20499;-58
2021/12/06 11:00:33;;;;;;;5.70;3.15;;;;;;;1.67;84.84;97203.28;5045026;28;20049;-59
2021/12/06 11:03:01;;;;;;;6.75;4.05;;;;;;;1.71;84.79;97198.41;5040634;28;20045;-59
2021/12/06 11:05:32;;;;;;;9.45;5.68;;;;;;;1.63;85.27;97191.41;5042057;28;20116;-58
2021/12/06 11:08:12;;;;;;;9.40;4.30;;;;;;;1.61;84.76;97188.09;5045001;28;20048;-59
2021/12/06 11:10:46;;;;;;;9.18;4.18;;;;;;;1.74;85.13;97178.47;5044542;28;20063;-60
2021/12/06 11:13:12;;;;;;;7.03;3.60;;;;;;;1.93;83.59;97179.56;5044982;28;20045;-58
2021/12/06 11:16:09;;;;;;;7.43;4.90;;;;;;;2.08;83.50;97179.41;5044739;28;20037;-58
2021/12/06 11:18:55;;;;;;;6.10;3.20;;;;;;;2.38;82.33;97183.56;5044855;28;20053;-58
2021/12/06 11:21:27;;;;;;;7.38;3.47;;;;;;;2.58;80.89;97186.25;5044918;28;20514;-57
2021/12/06 11:23:56;;;;;;;;;;;;;;;2.66;80.79;97180.72;5045566;28;20595;-58
2021/12/06 11:26:23;;;;;;;4.18;1.90;;;;;;;2.64;80.07;97180.09;5044784;28;19928;-59
2021/12/06 11:28:50;;;;;;;5.50;2.95;;;;;;;2.51;80.74;97172.88;5044289;28;20044;-57
2021/12/06 11:31:17;;;;;;;6.63;3.42;;;;;;;2.39;81.49;97172.66;5043178;28;20053;-58
2021/12/06 11:33:57;;;;;;;4.63;2.67;;;;;;;2.50;81.23;97186.47;5030607;28;20057;-58
2021/12/06 11:36:25;;;;;;;4.63;2.67;;;;;;;2.66;79.69;97177.22;5017236;28;20041;-59
2021/12/06 11:39:11;;;;;;;5.53;2.72;;;;;;;2.72;79.59;97184.41;5044637;28;20067;-59
2021/12/06 11:41:42;;;;;;;3.90;2.20;;;;;;;2.79;78.98;97179.88;5022000;28;20140;-57
2021/12/06 11:44:18;;;;;;;5.10;2.58;;;;;;;2.95;78.04;97183.97;5044538;28;20053;-59
2021/12/06 11:46:46;;;;;;;3.88;2.15;;;;;;;3.07;76.26;97184.19;5043758;28;20060;-58